sensor_id;sensor_type;location;lat;lon;timestamp;P1;durP1;ratioP1;P2;durP2;ratioP2
71637;SDS011;59485;43.542;-5.676;2023-06-10T00:02:07;8.18;;;3.13;;
71637;SDS011;59485;43.542;-5.676;2023-06-10T00:04:33;7.27;;;3.37;;
71637;SDS011;59485;43.542;-5.676;2023-06-10T00:07:01;15.88;;;3.85;;
71637;SDS011;59485;43.542;-5.676;2023-06-10T00:09:28;6.63;;;3.95;;
71637;SDS011;59485;43.542;-5.676;2023-06-10T00:11:54;9.03;;;4.03;;
71637;SDS011;59485;43.542;-5.676;2023-06-10T00:14:20;9.77;;;4.50;;
71637;SDS011;59485;43.542;-5.676;2023-06-10T00:16:45;11.73;;;4.97;;
71637;SDS011;59485;43.542;-5.676;2023-06-10T00:19:11;16.00;;;9.40;;
71637;SDS011;59485;43.542;-5.676;2023-06-10T00:21:38;27.90;;;17.13;;
71637;SDS011;59485;43.542;-5.676;2023-06-10T00:24:08;32.42;;;22.67;;
71637;SDS011;59485;43.542;-5.676;2023-06-10T00:26:38;32.10;;;23.85;;
71637;SDS011;59485;43.542;-5.676;2023-06-10T00:29:04;33.05;;;25.35;;
71637;SDS011;59485;43.542;-5.676;2023-06-10T00:31:30;38.53;;;28.55;;
71637;SDS011;59485;43.542;-5.676;2023-06-10T00:33:55;33.90;;;26.03;;
71637;SDS011;59485;43.542;-5.676;2023-06-10T00:36:21;34.07;;;24.63;;
71637;SDS011;59485;43.542;-5.676;2023-06-10T00:38:47;35.00;;;26.17;;
71637;SDS011;59485;43.542;-5.676;2023-06-10T00:41:13;31.87;;;23.70;;
71637;SDS011;59485;43.542;-5.676;2023-06-10T00:43:39;32.28;;;22.67;;
71637;SDS011;59485;43.542;-5.676;2023-06-10T00:46:04;30.33;;;22.23;;
71637;SDS011;59485;43.542;-5.676;2023-06-10T00:48:30;30.52;;;20.33;;
71637;SDS011;59485;43.542;-5.676;2023-06-10T00:50:56;28.70;;;18.08;;
71637;SDS011;59485;43.542;-5.676;2023-06-10T00:53:23;27.05;;;19.15;;
71637;SDS011;59485;43.542;-5.676;2023-06-10T00:55:50;29.97;;;21.30;;
71637;SDS011;59485;43.542;-5.676;2023-06-10T00:58:15;27.60;;;20.35;;
71637;SDS011;59485;43.542;-5.676;2023-06-10T01:00:41;30.20;;;20.00;;
71637;SDS011;59485;43.542;-5.676;2023-06-10T01:03:06;37.72;;;26.33;;
71637;SDS011;59485;43.542;-5.676;2023-06-10T01:05:35;33.77;;;24.00;;
71637;SDS011;59485;43.542;-5.676;2023-06-10T01:13:16;9.68;;;5.53;;
71637;SDS011;59485;43.542;-5.676;2023-06-10T01:15:43;9.43;;;5.28;;
71637;SDS011;59485;43.542;-5.676;2023-06-10T01:18:10;9.50;;;4.90;;
71637;SDS011;59485;43.542;-5.676;2023-06-10T01:20:40;7.93;;;4.95;;
71637;SDS011;59485;43.542;-5.676;2023-06-10T01:23:08;8.20;;;4.07;;
71637;SDS011;59485;43.542;-5.676;2023-06-10T01:25:45;10.93;;;4.80;;
71637;SDS011;59485;43.542;-5.676;2023-06-10T01:31:13;9.53;;;5.57;;
71637;SDS011;59485;43.542;-5.676;2023-06-10T01:34:00;9.40;;;5.43;;
71637;SDS011;59485;43.542;-5.676;2023-06-10T01:36:27;13.63;;;6.18;;
71637;SDS011;59485;43.542;-5.676;2023-06-10T01:38:54;12.52;;;5.55;;
71637;SDS011;59485;43.542;-5.676;2023-06-10T01:41:21;14.48;;;6.93;;
71637;SDS011;59485;43.542;-5.676;2023-06-10T01:43:48;10.10;;;7.30;;
71637;SDS011;59485;43.542;-5.676;2023-06-10T01:46:14;11.75;;;7.00;;
71637;SDS011;59485;43.542;-5.676;2023-06-10T01:48:44;11.63;;;6.78;;
71637;SDS011;59485;43.542;-5.676;2023-06-10T01:51:10;10.40;;;7.40;;
71637;SDS011;59485;43.542;-5.676;2023-06-10T01:53:35;14.52;;;8.10;;
71637;SDS011;59485;43.542;-5.676;2023-06-10T01:56:01;13.37;;;7.70;;
71637;SDS011;59485;43.542;-5.676;2023-06-10T01:58:29;12.95;;;7.95;;
71637;SDS011;59485;43.542;-5.676;2023-06-10T02:00:55;16.73;;;12.40;;
71637;SDS011;59485;43.542;-5.676;2023-06-10T02:03:21;24.40;;;18.10;;
71637;SDS011;59485;43.542;-5.676;2023-06-10T02:05:46;19.33;;;16.33;;
71637;SDS011;59485;43.542;-5.676;2023-06-10T02:08:12;21.15;;;16.00;;
71637;SDS011;59485;43.542;-5.676;2023-06-10T02:10:37;17.87;;;14.47;;
71637;SDS011;59485;43.542;-5.676;2023-06-10T02:13:03;18.48;;;14.40;;
71637;SDS011;59485;43.542;-5.676;2023-06-10T02:15:28;19.47;;;14.60;;
71637;SDS011;59485;43.542;-5.676;2023-06-10T02:17:54;17.27;;;12.93;;
71637;SDS011;59485;43.542;-5.676;2023-06-10T02:20:20;14.98;;;10.32;;
71637;SDS011;59485;43.542;-5.676;2023-06-10T02:22:46;13.33;;;8.97;;
71637;SDS011;59485;43.542;-5.676;2023-06-10T02:25:12;13.70;;;9.35;;
71637;SDS011;59485;43.542;-5.676;2023-06-10T02:27:37;15.73;;;11.50;;
71637;SDS011;59485;43.542;-5.676;2023-06-10T02:30:03;17.93;;;13.97;;
71637;SDS011;59485;43.542;-5.676;2023-06-10T02:32:29;25.10;;;19.20;;
71637;SDS011;59485;43.542;-5.676;2023-06-10T02:34:55;28.73;;;22.50;;
71637;SDS011;59485;43.542;-5.676;2023-06-10T02:37:20;32.30;;;24.00;;
71637;SDS011;59485;43.542;-5.676;2023-06-10T02:39:46;38.03;;;26.63;;
71637;SDS011;59485;43.542;-5.676;2023-06-10T02:42:11;43.33;;;30.10;;
71637;SDS011;59485;43.542;-5.676;2023-06-10T02:44:37;41.23;;;27.87;;
71637;SDS011;59485;43.542;-5.676;2023-06-10T02:47:03;35.10;;;23.73;;
71637;SDS011;59485;43.542;-5.676;2023-06-10T02:49:29;31.38;;;21.17;;
71637;SDS011;59485;43.542;-5.676;2023-06-10T02:51:55;34.30;;;20.83;;
71637;SDS011;59485;43.542;-5.676;2023-06-10T02:54:22;26.52;;;18.27;;
71637;SDS011;59485;43.542;-5.676;2023-06-10T02:56:48;28.23;;;15.70;;
71637;SDS011;59485;43.542;-5.676;2023-06-10T02:59:13;21.77;;;13.93;;
71637;SDS011;59485;43.542;-5.676;2023-06-10T03:01:39;21.10;;;13.00;;
71637;SDS011;59485;43.542;-5.676;2023-06-10T03:04:06;25.52;;;16.27;;
71637;SDS011;59485;43.542;-5.676;2023-06-10T03:06:32;31.52;;;21.23;;
71637;SDS011;59485;43.542;-5.676;2023-06-10T03:09:01;30.50;;;20.77;;
71637;SDS011;59485;43.542;-5.676;2023-06-10T03:11:29;24.17;;;15.03;;
71637;SDS011;59485;43.542;-5.676;2023-06-10T03:13:54;20.15;;;13.35;;
71637;SDS011;59485;43.542;-5.676;2023-06-10T03:16:21;17.80;;;10.80;;
71637;SDS011;59485;43.542;-5.676;2023-06-10T03:18:47;16.37;;;9.53;;
71637;SDS011;59485;43.542;-5.676;2023-06-10T03:21:13;12.80;;;8.13;;
71637;SDS011;59485;43.542;-5.676;2023-06-10T03:23:39;14.97;;;9.30;;
71637;SDS011;59485;43.542;-5.676;2023-06-10T03:26:04;13.37;;;7.30;;
71637;SDS011;59485;43.542;-5.676;2023-06-10T03:28:30;13.17;;;7.43;;
71637;SDS011;59485;43.542;-5.676;2023-06-10T03:30:56;14.07;;;7.40;;
71637;SDS011;59485;43.542;-5.676;2023-06-10T03:33:22;12.43;;;7.10;;
71637;SDS011;59485;43.542;-5.676;2023-06-10T03:35:48;12.40;;;6.43;;
71637;SDS011;59485;43.542;-5.676;2023-06-10T03:38:13;9.50;;;6.37;;
71637;SDS011;59485;43.542;-5.676;2023-06-10T03:40:39;12.55;;;6.47;;
71637;SDS011;59485;43.542;-5.676;2023-06-10T03:43:05;11.98;;;6.10;;
71637;SDS011;59485;43.542;-5.676;2023-06-10T03:45:30;10.10;;;5.67;;
71637;SDS011;59485;43.542;-5.676;2023-06-10T03:47:57;9.30;;;4.78;;
71637;SDS011;59485;43.542;-5.676;2023-06-10T03:50:23;11.60;;;5.33;;
71637;SDS011;59485;43.542;-5.676;2023-06-10T03:52:49;13.10;;;4.90;;
71637;SDS011;59485;43.542;-5.676;2023-06-10T03:55:15;12.20;;;5.47;;
71637;SDS011;59485;43.542;-5.676;2023-06-10T03:57:41;11.38;;;5.50;;
71637;SDS011;59485;43.542;-5.676;2023-06-10T04:00:07;12.60;;;5.47;;
71637;SDS011;59485;43.542;-5.676;2023-06-10T04:02:36;9.90;;;5.28;;
71637;SDS011;59485;43.542;-5.676;2023-06-10T04:05:03;9.63;;;5.57;;
71637;SDS011;59485;43.542;-5.676;2023-06-10T04:07:29;10.57;;;5.80;;
71637;SDS011;59485;43.542;-5.676;2023-06-10T04:09:55;14.38;;;5.97;;
71637;SDS011;59485;43.542;-5.676;2023-06-10T04:12:21;10.77;;;5.87;;
71637;SDS011;59485;43.542;-5.676;2023-06-10T04:14:46;11.23;;;5.47;;
71637;SDS011;59485;43.542;-5.676;2023-06-10T04:17:12;11.00;;;5.88;;
71637;SDS011;59485;43.542;-5.676;2023-06-10T04:19:37;13.30;;;5.73;;
71637;SDS011;59485;43.542;-5.676;2023-06-10T04:22:03;13.07;;;6.57;;
71637;SDS011;59485;43.542;-5.676;2023-06-10T04:24:30;11.80;;;6.10;;
71637;SDS011;59485;43.542;-5.676;2023-06-10T04:26:56;13.85;;;6.25;;
71637;SDS011;59485;43.542;-5.676;2023-06-10T04:29:21;12.57;;;6.57;;
71637;SDS011;59485;43.542;-5.676;2023-06-10T04:31:47;12.93;;;6.90;;
71637;SDS011;59485;43.542;-5.676;2023-06-10T04:34:12;13.15;;;6.38;;
71637;SDS011;59485;43.542;-5.676;2023-06-10T04:36:38;13.83;;;6.73;;
71637;SDS011;59485;43.542;-5.676;2023-06-10T04:39:04;12.90;;;7.03;;
71637;SDS011;59485;43.542;-5.676;2023-06-10T04:41:32;14.60;;;8.77;;
71637;SDS011;59485;43.542;-5.676;2023-06-10T04:43:58;14.20;;;7.23;;
71637;SDS011;59485;43.542;-5.676;2023-06-10T04:46:23;13.43;;;6.83;;
71637;SDS011;59485;43.542;-5.676;2023-06-10T04:48:49;12.32;;;6.28;;
71637;SDS011;59485;43.542;-5.676;2023-06-10T04:51:15;10.67;;;6.53;;
71637;SDS011;59485;43.542;-5.676;2023-06-10T04:53:41;11.27;;;6.10;;
71637;SDS011;59485;43.542;-5.676;2023-06-10T04:56:07;12.10;;;6.40;;
71637;SDS011;59485;43.542;-5.676;2023-06-10T04:58:33;11.30;;;6.00;;
71637;SDS011;59485;43.542;-5.676;2023-06-10T05:00:58;10.80;;;6.15;;
71637;SDS011;59485;43.542;-5.676;2023-06-10T05:03:24;10.95;;;6.28;;
71637;SDS011;59485;43.542;-5.676;2023-06-10T05:05:51;10.23;;;6.40;;
71637;SDS011;59485;43.542;-5.676;2023-06-10T05:08:17;11.00;;;6.70;;
71637;SDS011;59485;43.542;-5.676;2023-06-10T05:10:43;11.60;;;6.63;;
71637;SDS011;59485;43.542;-5.676;2023-06-10T05:13:08;12.88;;;6.70;;
71637;SDS011;59485;43.542;-5.676;2023-06-10T05:15:34;15.20;;;7.17;;
71637;SDS011;59485;43.542;-5.676;2023-06-10T05:18:00;11.70;;;6.97;;
71637;SDS011;59485;43.542;-5.676;2023-06-10T05:20:27;13.25;;;6.80;;
71637;SDS011;59485;43.542;-5.676;2023-06-10T05:22:53;11.00;;;6.37;;
71637;SDS011;59485;43.542;-5.676;2023-06-10T05:25:19;11.90;;;6.43;;
71637;SDS011;59485;43.542;-5.676;2023-06-10T05:27:44;7.63;;;4.57;;
71637;SDS011;59485;43.542;-5.676;2023-06-10T05:30:10;9.68;;;3.97;;
71637;SDS011;59485;43.542;-5.676;2023-06-10T05:32:36;7.53;;;4.20;;
71637;SDS011;59485;43.542;-5.676;2023-06-10T05:35:01;7.13;;;3.22;;
71637;SDS011;59485;43.542;-5.676;2023-06-10T05:37:28;6.80;;;3.30;;
71637;SDS011;59485;43.542;-5.676;2023-06-10T05:39:54;7.00;;;2.58;;
71637;SDS011;59485;43.542;-5.676;2023-06-10T05:42:20;8.33;;;3.20;;
71637;SDS011;59485;43.542;-5.676;2023-06-10T05:44:45;12.00;;;4.03;;
71637;SDS011;59485;43.542;-5.676;2023-06-10T05:47:11;7.50;;;3.73;;
71637;SDS011;59485;43.542;-5.676;2023-06-10T05:49:36;7.57;;;3.60;;
71637;SDS011;59485;43.542;-5.676;2023-06-10T05:52:02;6.88;;;3.30;;
71637;SDS011;59485;43.542;-5.676;2023-06-10T05:54:27;8.20;;;3.47;;
71637;SDS011;59485;43.542;-5.676;2023-06-10T05:56:53;5.60;;;3.27;;
71637;SDS011;59485;43.542;-5.676;2023-06-10T05:59:19;6.27;;;3.40;;
71637;SDS011;59485;43.542;-5.676;2023-06-10T06:01:44;7.77;;;3.60;;
71637;SDS011;59485;43.542;-5.676;2023-06-10T06:04:10;8.47;;;3.13;;
71637;SDS011;59485;43.542;-5.676;2023-06-10T06:06:38;7.43;;;2.80;;
71637;SDS011;59485;43.542;-5.676;2023-06-10T06:09:04;10.10;;;5.72;;
71637;SDS011;59485;43.542;-5.676;2023-06-10T06:11:30;7.20;;;3.63;;
71637;SDS011;59485;43.542;-5.676;2023-06-10T06:13:56;9.00;;;2.40;;
71637;SDS011;59485;43.542;-5.676;2023-06-10T06:16:25;5.23;;;2.87;;
71637;SDS011;59485;43.542;-5.676;2023-06-10T06:18:50;6.85;;;2.40;;
71637;SDS011;59485;43.542;-5.676;2023-06-10T06:21:16;8.30;;;2.83;;
71637;SDS011;59485;43.542;-5.676;2023-06-10T06:23:44;4.97;;;2.17;;
71637;SDS011;59485;43.542;-5.676;2023-06-10T06:26:09;9.07;;;2.60;;
71637;SDS011;59485;43.542;-5.676;2023-06-10T06:28:35;5.20;;;2.40;;
71637;SDS011;59485;43.542;-5.676;2023-06-10T06:31:00;6.73;;;2.73;;
71637;SDS011;59485;43.542;-5.676;2023-06-10T06:33:26;6.10;;;2.57;;
71637;SDS011;59485;43.542;-5.676;2023-06-10T06:35:51;5.67;;;2.50;;
71637;SDS011;59485;43.542;-5.676;2023-06-10T06:38:17;7.47;;;2.90;;
71637;SDS011;59485;43.542;-5.676;2023-06-10T06:40:44;5.72;;;2.13;;
71637;SDS011;59485;43.542;-5.676;2023-06-10T06:43:10;7.23;;;1.97;;
71637;SDS011;59485;43.542;-5.676;2023-06-10T06:45:35;5.30;;;2.50;;
71637;SDS011;59485;43.542;-5.676;2023-06-10T06:48:01;5.73;;;2.47;;
71637;SDS011;59485;43.542;-5.676;2023-06-10T06:50:27;5.82;;;2.55;;
71637;SDS011;59485;43.542;-5.676;2023-06-10T06:52:53;8.60;;;2.60;;
71637;SDS011;59485;43.542;-5.676;2023-06-10T06:55:18;6.43;;;2.13;;
71637;SDS011;59485;43.542;-5.676;2023-06-10T06:57:44;4.67;;;1.43;;
71637;SDS011;59485;43.542;-5.676;2023-06-10T07:00:09;7.93;;;2.30;;
71637;SDS011;59485;43.542;-5.676;2023-06-10T07:02:35;6.43;;;2.13;;
71637;SDS011;59485;43.542;-5.676;2023-06-10T07:05:01;5.22;;;2.10;;
71637;SDS011;59485;43.542;-5.676;2023-06-10T07:07:27;6.23;;;2.33;;
71637;SDS011;59485;43.542;-5.676;2023-06-10T07:09:52;4.88;;;2.10;;
71637;SDS011;59485;43.542;-5.676;2023-06-10T07:12:18;5.90;;;2.27;;
71637;SDS011;59485;43.542;-5.676;2023-06-10T07:14:43;6.90;;;2.70;;
71637;SDS011;59485;43.542;-5.676;2023-06-10T07:17:09;7.13;;;2.20;;
71637;SDS011;59485;43.542;-5.676;2023-06-10T07:19:35;8.77;;;3.00;;
71637;SDS011;59485;43.542;-5.676;2023-06-10T07:22:01;10.30;;;3.00;;
71637;SDS011;59485;43.542;-5.676;2023-06-10T07:24:26;7.13;;;2.70;;
71637;SDS011;59485;43.542;-5.676;2023-06-10T07:26:51;5.57;;;2.43;;
71637;SDS011;59485;43.542;-5.676;2023-06-10T07:29:17;9.63;;;3.20;;
71637;SDS011;59485;43.542;-5.676;2023-06-10T07:31:43;6.40;;;3.03;;
71637;SDS011;59485;43.542;-5.676;2023-06-10T07:34:08;8.53;;;3.67;;
71637;SDS011;59485;43.542;-5.676;2023-06-10T07:36:34;7.45;;;3.15;;
71637;SDS011;59485;43.542;-5.676;2023-06-10T07:38:59;7.60;;;2.40;;
71637;SDS011;59485;43.542;-5.676;2023-06-10T07:41:25;8.17;;;2.20;;
71637;SDS011;59485;43.542;-5.676;2023-06-10T07:43:51;6.75;;;2.15;;
71637;SDS011;59485;43.542;-5.676;2023-06-10T07:46:20;6.35;;;2.47;;
71637;SDS011;59485;43.542;-5.676;2023-06-10T07:48:46;7.40;;;2.73;;
71637;SDS011;59485;43.542;-5.676;2023-06-10T07:51:12;6.13;;;2.35;;
71637;SDS011;59485;43.542;-5.676;2023-06-10T07:53:38;7.03;;;2.40;;
71637;SDS011;59485;43.542;-5.676;2023-06-10T07:56:03;5.78;;;2.38;;
71637;SDS011;59485;43.542;-5.676;2023-06-10T07:58:29;8.87;;;2.63;;
71637;SDS011;59485;43.542;-5.676;2023-06-10T08:00:54;6.38;;;3.35;;
71637;SDS011;59485;43.542;-5.676;2023-06-10T08:03:20;7.93;;;2.53;;
71637;SDS011;59485;43.542;-5.676;2023-06-10T08:05:46;6.20;;;2.80;;
71637;SDS011;59485;43.542;-5.676;2023-06-10T08:08:13;6.72;;;3.20;;
71637;SDS011;59485;43.542;-5.676;2023-06-10T08:10:38;7.25;;;3.33;;
71637;SDS011;59485;43.542;-5.676;2023-06-10T08:13:04;8.87;;;3.83;;
71637;SDS011;59485;43.542;-5.676;2023-06-10T08:15:29;7.10;;;3.50;;
71637;SDS011;59485;43.542;-5.676;2023-06-10T08:17:55;7.30;;;3.73;;
71637;SDS011;59485;43.542;-5.676;2023-06-10T08:20:21;6.80;;;4.35;;
71637;SDS011;59485;43.542;-5.676;2023-06-10T08:22:47;6.97;;;3.27;;
71637;SDS011;59485;43.542;-5.676;2023-06-10T08:25:13;9.52;;;4.10;;
71637;SDS011;59485;43.542;-5.676;2023-06-10T08:27:38;8.83;;;4.43;;
71637;SDS011;59485;43.542;-5.676;2023-06-10T08:30:04;7.18;;;4.13;;
71637;SDS011;59485;43.542;-5.676;2023-06-10T08:32:30;6.80;;;3.07;;
71637;SDS011;59485;43.542;-5.676;2023-06-10T08:34:56;9.13;;;3.28;;
71637;SDS011;59485;43.542;-5.676;2023-06-10T08:37:21;9.30;;;3.30;;
71637;SDS011;59485;43.542;-5.676;2023-06-10T08:39:47;6.50;;;3.60;;
71637;SDS011;59485;43.542;-5.676;2023-06-10T08:44:54;9.13;;;3.20;;
71637;SDS011;59485;43.542;-5.676;2023-06-10T08:47:22;5.95;;;2.83;;
71637;SDS011;59485;43.542;-5.676;2023-06-10T08:49:48;6.33;;;3.30;;
71637;SDS011;59485;43.542;-5.676;2023-06-10T08:52:15;5.85;;;2.38;;
71637;SDS011;59485;43.542;-5.676;2023-06-10T08:54:59;5.88;;;2.22;;
71637;SDS011;59485;43.542;-5.676;2023-06-10T08:57:28;7.77;;;2.20;;
71637;SDS011;59485;43.542;-5.676;2023-06-10T08:59:56;6.20;;;2.20;;
71637;SDS011;59485;43.542;-5.676;2023-06-10T09:02:22;6.80;;;2.10;;
71637;SDS011;59485;43.542;-5.676;2023-06-10T09:04:51;4.93;;;1.75;;
71637;SDS011;59485;43.542;-5.676;2023-06-10T09:07:17;5.10;;;2.17;;
71637;SDS011;59485;43.542;-5.676;2023-06-10T09:09:43;5.10;;;2.00;;
71637;SDS011;59485;43.542;-5.676;2023-06-10T09:12:10;6.63;;;2.47;;
71637;SDS011;59485;43.542;-5.676;2023-06-10T09:14:37;5.45;;;2.08;;
71637;SDS011;59485;43.542;-5.676;2023-06-10T09:17:03;4.77;;;1.70;;
71637;SDS011;59485;43.542;-5.676;2023-06-10T09:19:30;4.82;;;1.65;;
71637;SDS011;59485;43.542;-5.676;2023-06-10T09:21:55;5.60;;;1.60;;
71637;SDS011;59485;43.542;-5.676;2023-06-10T09:24:24;4.77;;;1.57;;
71637;SDS011;59485;43.542;-5.676;2023-06-10T09:26:50;5.63;;;1.52;;
71637;SDS011;59485;43.542;-5.676;2023-06-10T09:29:27;5.47;;;1.60;;
71637;SDS011;59485;43.542;-5.676;2023-06-10T09:31:52;4.27;;;1.10;;
71637;SDS011;59485;43.542;-5.676;2023-06-10T09:34:18;4.37;;;1.73;;
71637;SDS011;59485;43.542;-5.676;2023-06-10T09:36:44;5.72;;;1.50;;
71637;SDS011;59485;43.542;-5.676;2023-06-10T09:39:17;3.75;;;0.90;;
71637;SDS011;59485;43.542;-5.676;2023-06-10T09:41:44;4.53;;;1.30;;
71637;SDS011;59485;43.542;-5.676;2023-06-10T09:44:15;4.30;;;1.23;;
71637;SDS011;59485;43.542;-5.676;2023-06-10T09:46:46;5.32;;;1.30;;
71637;SDS011;59485;43.542;-5.676;2023-06-10T09:49:12;5.55;;;1.90;;
71637;SDS011;59485;43.542;-5.676;2023-06-10T09:51:48;6.35;;;1.77;;
71637;SDS011;59485;43.542;-5.676;2023-06-10T09:54:15;5.90;;;1.67;;
71637;SDS011;59485;43.542;-5.676;2023-06-10T09:56:41;6.20;;;3.07;;
71637;SDS011;59485;43.542;-5.676;2023-06-10T09:59:07;6.25;;;2.15;;
71637;SDS011;59485;43.542;-5.676;2023-06-10T10:01:34;10.57;;;6.07;;
71637;SDS011;59485;43.542;-5.676;2023-06-10T10:04:00;7.28;;;3.35;;
71637;SDS011;59485;43.542;-5.676;2023-06-10T10:06:26;9.50;;;4.60;;
71637;SDS011;59485;43.542;-5.676;2023-06-10T10:08:53;8.52;;;3.97;;
71637;SDS011;59485;43.542;-5.676;2023-06-10T10:11:20;5.23;;;1.50;;
71637;SDS011;59485;43.542;-5.676;2023-06-10T10:13:51;5.93;;;1.50;;
71637;SDS011;59485;43.542;-5.676;2023-06-10T10:16:19;5.03;;;1.48;;
71637;SDS011;59485;43.542;-5.676;2023-06-10T10:18:55;8.38;;;2.38;;
71637;SDS011;59485;43.542;-5.676;2023-06-10T10:21:37;5.03;;;1.57;;
71637;SDS011;59485;43.542;-5.676;2023-06-10T10:24:18;5.32;;;1.55;;
71637;SDS011;59485;43.542;-5.676;2023-06-10T10:26:46;8.52;;;3.30;;
71637;SDS011;59485;43.542;-5.676;2023-06-10T10:29:16;6.03;;;2.03;;
71637;SDS011;59485;43.542;-5.676;2023-06-10T10:31:50;6.13;;;2.47;;
71637;SDS011;59485;43.542;-5.676;2023-06-10T10:34:21;12.90;;;7.13;;
71637;SDS011;59485;43.542;-5.676;2023-06-10T10:36:52;7.43;;;2.63;;
71637;SDS011;59485;43.542;-5.676;2023-06-10T10:39:18;25.50;;;16.17;;
71637;SDS011;59485;43.542;-5.676;2023-06-10T10:41:44;8.60;;;3.83;;
71637;SDS011;59485;43.542;-5.676;2023-06-10T10:44:11;15.35;;;9.07;;
71637;SDS011;59485;43.542;-5.676;2023-06-10T10:46:44;11.27;;;4.30;;
71637;SDS011;59485;43.542;-5.676;2023-06-10T10:49:14;5.13;;;1.92;;
71637;SDS011;59485;43.542;-5.676;2023-06-10T10:52:00;5.68;;;2.58;;
71637;SDS011;59485;43.542;-5.676;2023-06-10T10:54:33;5.80;;;2.42;;
71637;SDS011;59485;43.542;-5.676;2023-06-10T10:59:45;7.70;;;3.35;;
71637;SDS011;59485;43.542;-5.676;2023-06-10T11:04:49;6.18;;;1.73;;
71637;SDS011;59485;43.542;-5.676;2023-06-10T11:07:14;5.23;;;2.10;;
71637;SDS011;59485;43.542;-5.676;2023-06-10T11:09:57;6.32;;;2.20;;
71637;SDS011;59485;43.542;-5.676;2023-06-10T11:12:24;6.22;;;1.92;;
71637;SDS011;59485;43.542;-5.676;2023-06-10T11:14:54;8.98;;;3.50;;
71637;SDS011;59485;43.542;-5.676;2023-06-10T11:17:23;6.80;;;2.50;;
71637;SDS011;59485;43.542;-5.676;2023-06-10T11:19:49;5.85;;;2.33;;
71637;SDS011;59485;43.542;-5.676;2023-06-10T11:22:17;5.70;;;1.77;;
71637;SDS011;59485;43.542;-5.676;2023-06-10T11:24:47;6.83;;;2.23;;
71637;SDS011;59485;43.542;-5.676;2023-06-10T11:27:19;7.65;;;1.75;;
71637;SDS011;59485;43.542;-5.676;2023-06-10T11:29:58;7.03;;;2.53;;
71637;SDS011;59485;43.542;-5.676;2023-06-10T11:32:43;4.75;;;2.30;;
71637;SDS011;59485;43.542;-5.676;2023-06-10T11:35:09;4.57;;;1.65;;
71637;SDS011;59485;43.542;-5.676;2023-06-10T11:37:35;4.27;;;1.50;;
71637;SDS011;59485;43.542;-5.676;2023-06-10T11:40:01;5.30;;;2.17;;
71637;SDS011;59485;43.542;-5.676;2023-06-10T11:42:31;6.80;;;3.50;;
71637;SDS011;59485;43.542;-5.676;2023-06-10T11:44:57;7.53;;;2.43;;
71637;SDS011;59485;43.542;-5.676;2023-06-10T11:47:23;7.75;;;3.22;;
71637;SDS011;59485;43.542;-5.676;2023-06-10T11:49:58;8.93;;;3.70;;
71637;SDS011;59485;43.542;-5.676;2023-06-10T11:52:27;7.15;;;3.20;;
71637;SDS011;59485;43.542;-5.676;2023-06-10T11:54:58;11.00;;;5.80;;
71637;SDS011;59485;43.542;-5.676;2023-06-10T11:57:24;12.40;;;6.77;;
71637;SDS011;59485;43.542;-5.676;2023-06-10T11:59:49;20.15;;;11.85;;
71637;SDS011;59485;43.542;-5.676;2023-06-10T12:02:15;24.33;;;15.23;;
71637;SDS011;59485;43.542;-5.676;2023-06-10T12:04:42;24.50;;;14.60;;
71637;SDS011;59485;43.542;-5.676;2023-06-10T12:07:07;22.43;;;13.00;;
71637;SDS011;59485;43.542;-5.676;2023-06-10T12:09:33;32.65;;;24.25;;
71637;SDS011;59485;43.542;-5.676;2023-06-10T12:17:22;11.25;;;5.95;;
71637;SDS011;59485;43.542;-5.676;2023-06-10T12:19:57;10.07;;;4.40;;
71637;SDS011;59485;43.542;-5.676;2023-06-10T12:22:23;8.23;;;4.25;;
71637;SDS011;59485;43.542;-5.676;2023-06-10T12:25:00;8.13;;;4.03;;
71637;SDS011;59485;43.542;-5.676;2023-06-10T12:27:27;6.32;;;2.33;;
71637;SDS011;59485;43.542;-5.676;2023-06-10T12:29:55;4.80;;;2.00;;
71637;SDS011;59485;43.542;-5.676;2023-06-10T12:32:34;5.13;;;1.63;;
71637;SDS011;59485;43.542;-5.676;2023-06-10T12:35:22;5.75;;;2.10;;
71637;SDS011;59485;43.542;-5.676;2023-06-10T12:38:25;7.32;;;1.95;;
71637;SDS011;59485;43.542;-5.676;2023-06-10T12:40:49;11.63;;;6.78;;
71637;SDS011;59485;43.542;-5.676;2023-06-10T12:43:19;12.65;;;7.18;;
71637;SDS011;59485;43.542;-5.676;2023-06-10T12:45:46;37.47;;;23.27;;
71637;SDS011;59485;43.542;-5.676;2023-06-10T12:48:18;34.10;;;21.27;;
71637;SDS011;59485;43.542;-5.676;2023-06-10T12:50:46;14.00;;;7.47;;
71637;SDS011;59485;43.542;-5.676;2023-06-10T12:55:41;16.17;;;10.65;;
71637;SDS011;59485;43.542;-5.676;2023-06-10T12:58:08;6.85;;;3.03;;
71637;SDS011;59485;43.542;-5.676;2023-06-10T13:00:34;10.50;;;5.47;;
71637;SDS011;59485;43.542;-5.676;2023-06-10T13:03:03;4.63;;;2.05;;
71637;SDS011;59485;43.542;-5.676;2023-06-10T13:05:32;5.53;;;2.67;;
71637;SDS011;59485;43.542;-5.676;2023-06-10T13:08:02;9.63;;;5.15;;
71637;SDS011;59485;43.542;-5.676;2023-06-10T13:10:53;5.03;;;1.67;;
71637;SDS011;59485;43.542;-5.676;2023-06-10T13:13:27;8.43;;;4.15;;
71637;SDS011;59485;43.542;-5.676;2023-06-10T13:15:53;6.70;;;3.03;;
71637;SDS011;59485;43.542;-5.676;2023-06-10T13:18:19;7.73;;;3.63;;
71637;SDS011;59485;43.542;-5.676;2023-06-10T13:20:45;8.48;;;3.60;;
71637;SDS011;59485;43.542;-5.676;2023-06-10T13:23:10;5.27;;;1.87;;
71637;SDS011;59485;43.542;-5.676;2023-06-10T13:25:36;5.17;;;2.00;;
71637;SDS011;59485;43.542;-5.676;2023-06-10T13:28:01;4.47;;;1.20;;
71637;SDS011;59485;43.542;-5.676;2023-06-10T13:30:27;4.93;;;1.20;;
71637;SDS011;59485;43.542;-5.676;2023-06-10T13:32:53;8.23;;;4.43;;
71637;SDS011;59485;43.542;-5.676;2023-06-10T13:35:18;5.93;;;2.03;;
71637;SDS011;59485;43.542;-5.676;2023-06-10T13:37:44;4.20;;;1.27;;
71637;SDS011;59485;43.542;-5.676;2023-06-10T13:40:10;3.53;;;0.87;;
71637;SDS011;59485;43.542;-5.676;2023-06-10T13:42:36;5.82;;;2.70;;
71637;SDS011;59485;43.542;-5.676;2023-06-10T13:45:05;7.28;;;2.30;;
71637;SDS011;59485;43.542;-5.676;2023-06-10T13:47:34;3.50;;;0.90;;
71637;SDS011;59485;43.542;-5.676;2023-06-10T13:50:00;3.17;;;0.73;;
71637;SDS011;59485;43.542;-5.676;2023-06-10T13:52:25;4.40;;;1.23;;
71637;SDS011;59485;43.542;-5.676;2023-06-10T13:54:51;3.30;;;0.40;;
71637;SDS011;59485;43.542;-5.676;2023-06-10T13:57:16;4.15;;;1.13;;
71637;SDS011;59485;43.542;-5.676;2023-06-10T13:59:42;3.80;;;1.00;;
71637;SDS011;59485;43.542;-5.676;2023-06-10T14:02:08;7.95;;;1.05;;
71637;SDS011;59485;43.542;-5.676;2023-06-10T14:04:34;5.80;;;0.80;;
71637;SDS011;59485;43.542;-5.676;2023-06-10T14:07:02;6.93;;;1.33;;
71637;SDS011;59485;43.542;-5.676;2023-06-10T14:09:46;8.77;;;1.00;;
71637;SDS011;59485;43.542;-5.676;2023-06-10T14:12:12;3.67;;;0.95;;
71637;SDS011;59485;43.542;-5.676;2023-06-10T14:14:38;6.43;;;0.70;;
71637;SDS011;59485;43.542;-5.676;2023-06-10T14:17:03;6.10;;;1.27;;
71637;SDS011;59485;43.542;-5.676;2023-06-10T14:19:30;6.13;;;0.63;;
71637;SDS011;59485;43.542;-5.676;2023-06-10T14:21:56;4.22;;;0.70;;
71637;SDS011;59485;43.542;-5.676;2023-06-10T14:44:46;4.60;;;0.80;;
71637;SDS011;59485;43.542;-5.676;2023-06-10T14:49:49;5.30;;;1.00;;
71637;SDS011;59485;43.542;-5.676;2023-06-10T14:52:15;6.70;;;0.60;;
71637;SDS011;59485;43.542;-5.676;2023-06-10T14:54:41;4.15;;;1.23;;
71637;SDS011;59485;43.542;-5.676;2023-06-10T14:57:07;6.43;;;1.07;;
71637;SDS011;59485;43.542;-5.676;2023-06-10T14:59:33;5.90;;;0.60;;
71637;SDS011;59485;43.542;-5.676;2023-06-10T15:01:59;4.10;;;0.73;;
71637;SDS011;59485;43.542;-5.676;2023-06-10T15:04:26;5.40;;;0.85;;
71637;SDS011;59485;43.542;-5.676;2023-06-10T15:06:52;4.72;;;0.70;;
71637;SDS011;59485;43.542;-5.676;2023-06-10T15:09:17;4.93;;;0.90;;
71637;SDS011;59485;43.542;-5.676;2023-06-10T15:11:43;3.85;;;0.80;;
71637;SDS011;59485;43.542;-5.676;2023-06-10T15:14:11;6.00;;;1.60;;
71637;SDS011;59485;43.542;-5.676;2023-06-10T15:16:37;3.88;;;0.60;;